Time;durP1;ratioP1;P1;durP2;ratioP2;P2;SDS_P1;SDS_P2;PMS_P1;PMS_P2;Temp;Humidity;BMP_temperature;BMP_pressure;BME280_temperature;BME280_humidity;BME280_pressure;Samples;Min_cycle;Max_cycle;Signal;HPM_P1;HPM_P2
2023/11/07 00:01:32;;;;;;;2.40;1.60;;;12.00;77.40;;;;;;5029749;28;20033;-77
2023/11/07 00:04:00;;;;;;;2.60;1.80;;;12.00;77.40;;;;;;5031477;28;20363;-76
2023/11/07 00:06:25;;;;;;;2.58;1.67;;;12.00;77.40;;;;;;5038692;28;20076;-76
2023/11/07 00:08:51;;;;;;;2.47;1.90;;;11.90;77.30;;;;;;5037116;28;20033;-77
2023/11/07 00:11:17;;;;;;;2.20;1.70;;;11.90;77.40;;;;;;5031064;28;20037;-76
2023/11/07 00:13:42;;;;;;;2.58;1.73;;;12.00;77.40;;;;;;5050754;28;20071;-76
2023/11/07 00:16:11;;;;;;;3.13;1.80;;;11.90;77.40;;;;;;5049523;28;20032;-77
2023/11/07 00:18:36;;;;;;;3.50;1.70;;;11.90;77.40;;;;;;5058461;28;20060;-78
2023/11/07 00:21:02;;;;;;;3.28;1.70;;;11.90;77.40;;;;;;5066654;28;20060;-77
2023/11/07 00:23:29;;;;;;;2.85;2.10;;;11.90;77.40;;;;;;5055753;28;20033;-77
2023/11/07 00:25:54;;;;;;;2.03;1.77;;;11.90;77.40;;;;;;5037956;28;20033;-77
2023/11/07 00:28:20;;;;;;;2.63;1.70;;;11.90;77.40;;;;;;5056731;28;20040;-77
2023/11/07 00:30:47;;;;;;;2.88;1.80;;;11.90;77.40;;;;;;5041839;28;20029;-77
2023/11/07 00:33:14;;;;;;;2.63;1.70;;;11.90;77.40;;;;;;5034915;28;20033;-77
2023/11/07 00:35:41;;;;;;;2.33;1.80;;;11.90;78.10;;;;;;5049606;28;20033;-77
2023/11/07 00:38:07;;;;;;;3.22;2.08;;;11.90;77.50;;;;;;5052984;28;20061;-76
2023/11/07 00:40:32;;;;;;;3.42;1.90;;;11.90;77.50;;;;;;5049640;28;20029;-76
2023/11/07 00:42:58;;;;;;;2.63;1.77;;;11.90;77.50;;;;;;5031086;28;20036;-77
2023/11/07 00:45:24;;;;;;;3.03;1.77;;;11.80;77.40;;;;;;5063776;28;20033;-76
2023/11/07 00:47:53;;;;;;;2.67;1.73;;;11.90;77.50;;;;;;5041987;28;20465;-77
2023/11/07 00:50:18;;;;;;;4.13;1.80;;;11.90;78.10;;;;;;5040971;28;20161;-77
2023/11/07 00:52:44;;;;;;;2.97;1.70;;;11.80;77.40;;;;;;5031676;28;20501;-77
2023/11/07 00:55:10;;;;;;;2.83;2.00;;;11.80;77.40;;;;;;5050126;28;20060;-77
2023/11/07 00:57:36;;;;;;;2.70;1.92;;;11.80;77.40;;;;;;5032363;28;20121;-76
2023/11/07 01:00:01;;;;;;;2.28;1.80;;;11.80;77.50;;;;;;5056486;28;20043;-77
2023/11/07 01:02:27;;;;;;;3.10;1.83;;;11.80;77.50;;;;;;5044623;28;20176;-77
2023/11/07 01:04:53;;;;;;;2.67;1.80;;;11.80;77.50;;;;;;5038991;28;20466;-77
2023/11/07 01:07:19;;;;;;;3.22;1.88;;;11.80;77.50;;;;;;5036649;28;20029;-77
2023/11/07 01:09:45;;;;;;;3.17;2.28;;;11.80;77.50;;;;;;5038621;28;20764;-77
2023/11/07 01:12:11;;;;;;;2.10;1.60;;;11.80;77.50;;;;;;5034735;28;20040;-77
2023/11/07 01:14:37;;;;;;;2.67;1.75;;;11.80;77.50;;;;;;5049132;28;20049;-77
2023/11/07 01:17:03;;;;;;;3.40;1.73;;;11.80;77.50;;;;;;5059728;28;20091;-77
2023/11/07 01:19:28;;;;;;;2.20;1.58;;;11.80;77.50;;;;;;5039894;28;20418;-78
2023/11/07 01:21:54;;;;;;;2.88;1.80;;;11.80;77.50;;;;;;5045936;28;20086;-77
2023/11/07 01:24:20;;;;;;;2.50;1.50;;;11.80;77.50;;;;;;5029860;28;20375;-77
2023/11/07 01:26:45;;;;;;;2.60;1.80;;;11.80;77.50;;;;;;5050379;28;20041;-76
2023/11/07 01:29:13;;;;;;;2.53;1.60;;;11.80;77.50;;;;;;5033578;28;20087;-77
2023/11/07 01:31:39;;;;;;;5.13;2.45;;;11.70;77.50;;;;;;5047180;28;20025;-77
2023/11/07 01:34:05;;;;;;;2.70;1.90;;;11.70;77.50;;;;;;5054140;28;20029;-77
2023/11/07 01:36:31;;;;;;;2.95;1.77;;;11.70;77.50;;;;;;5050896;28;20030;-77
2023/11/07 01:38:56;;;;;;;2.92;1.90;;;11.70;77.50;;;;;;5052164;28;20437;-77
2023/11/07 01:41:22;;;;;;;1.98;1.60;;;11.70;77.50;;;;;;5041378;28;20401;-76
2023/11/07 01:43:48;;;;;;;2.53;1.75;;;11.70;77.50;;;;;;5048387;28;20044;-76
2023/11/07 01:46:14;;;;;;;2.88;1.98;;;11.70;77.60;;;;;;5047119;28;20613;-76
2023/11/07 01:48:40;;;;;;;3.08;1.92;;;11.70;77.60;;;;;;5020798;28;20017;-76
2023/11/07 01:51:07;;;;;;;2.22;1.80;;;11.70;77.60;;;;;;5046273;28;20543;-77
2023/11/07 01:53:33;;;;;;;3.70;1.70;;;11.70;77.60;;;;;;5053668;28;20486;-76
2023/11/07 01:55:59;;;;;;;2.33;1.80;;;11.70;77.60;;;;;;5069005;28;20119;-77
2023/11/07 01:58:26;;;;;;;2.70;1.55;;;11.60;77.50;;;;;;5024699;28;20490;-77
2023/11/07 02:00:55;;;;;;;2.25;1.70;;;11.70;77.60;;;;;;5033152;28;20021;-78
2023/11/07 02:03:25;;;;;;;2.97;1.70;;;11.70;77.60;;;;;;5052681;28;20067;-77
2023/11/07 02:05:51;;;;;;;1.83;1.42;;;11.70;77.60;;;;;;5057124;28;20100;-76
2023/11/07 02:08:20;;;;;;;2.25;1.63;;;11.70;77.60;;;;;;5045638;28;20028;-77
2023/11/07 02:10:46;;;;;;;2.10;1.70;;;11.70;77.60;;;;;;5051839;28;20174;-76
2023/11/07 02:13:12;;;;;;;2.13;1.50;;;11.70;77.70;;;;;;5013812;28;20537;-76
2023/11/07 02:15:38;;;;;;;2.90;1.80;;;11.70;77.60;;;;;;5032300;28;20116;-77
2023/11/07 02:18:04;;;;;;;2.65;1.70;;;11.70;77.60;;;;;;5030442;28;20116;-77
2023/11/07 02:20:31;;;;;;;1.50;1.40;;;11.60;77.60;;;;;;5044928;28;20182;-77
2023/11/07 02:23:04;;;;;;;2.42;1.50;;;11.60;77.60;;;;;;5059910;28;20116;-77
2023/11/07 02:25:30;;;;;;;2.88;1.60;;;11.60;77.60;;;;;;5047236;28;20040;-77
2023/11/07 02:27:56;;;;;;;1.48;1.38;;;11.60;77.60;;;;;;5042294;28;20040;-76
2023/11/07 02:30:22;;;;;;;1.55;1.40;;;11.60;77.60;;;;;;5049711;28;20112;-76
2023/11/07 02:32:48;;;;;;;2.25;1.70;;;11.60;77.60;;;;;;5035154;28;20028;-77
2023/11/07 02:35:14;;;;;;;2.47;1.95;;;11.60;77.60;;;;;;5051427;28;20033;-75
2023/11/07 02:37:40;;;;;;;2.38;1.63;;;11.60;77.60;;;;;;5052852;28;20068;-77
2023/11/07 02:40:09;;;;;;;2.67;1.77;;;11.60;77.60;;;;;;5036421;28;20485;-75
2023/11/07 02:42:35;;;;;;;1.75;1.48;;;11.60;77.60;;;;;;5052691;28;20469;-76
2023/11/07 02:45:02;;;;;;;3.00;1.60;;;11.60;77.70;;;;;;5053743;28;20037;-75
2023/11/07 02:47:29;;;;;;;2.72;1.67;;;11.60;77.70;;;;;;5053286;28;20041;-75
2023/11/07 02:49:55;;;;;;;2.67;1.70;;;11.60;77.70;;;;;;5036019;28;20448;-76
2023/11/07 02:52:21;;;;;;;2.03;1.42;;;11.60;77.70;;;;;;5036116;28;20041;-75
2023/11/07 02:54:48;;;;;;;2.25;1.63;;;11.60;77.70;;;;;;5035838;28;20064;-75
2023/11/07 02:57:14;;;;;;;2.95;2.00;;;11.50;77.70;;;;;;5036243;28;20041;-76
2023/11/07 02:59:43;;;;;;;2.72;1.90;;;11.60;77.70;;;;;;5036256;28;20039;-75
2023/11/07 03:02:09;;;;;;;2.88;1.60;;;11.50;77.70;;;;;;5052314;28;20040;-77
2023/11/07 03:04:35;;;;;;;2.70;1.60;;;11.50;77.70;;;;;;5035793;28;20036;-76
2023/11/07 03:07:01;;;;;;;2.58;1.60;;;11.50;77.70;;;;;;5052161;28;20041;-75
2023/11/07 03:09:27;;;;;;;2.53;1.77;;;11.50;77.70;;;;;;5052643;28;20033;-75
2023/11/07 03:11:53;;;;;;;1.55;1.45;;;11.50;77.70;;;;;;5035394;28;20033;-75
2023/11/07 03:14:19;;;;;;;2.95;1.58;;;11.50;77.70;;;;;;5035673;28;20143;-76
2023/11/07 03:16:45;;;;;;;2.08;1.63;;;11.50;78.30;;;;;;5019224;28;20040;-76
2023/11/07 03:19:11;;;;;;;2.63;1.60;;;11.50;77.70;;;;;;5053458;28;20044;-75
2023/11/07 03:21:37;;;;;;;3.28;1.75;;;11.50;77.70;;;;;;5052386;28;20033;-75
2023/11/07 03:24:08;;;;;;;1.75;1.40;;;11.50;77.70;;;;;;5052431;28;20346;-77
2023/11/07 03:26:34;;;;;;;1.98;1.65;;;11.50;77.70;;;;;;5036408;28;20116;-75
2023/11/07 03:29:00;;;;;;;2.33;1.58;;;11.50;77.70;;;;;;5052012;28;20056;-74
2023/11/07 03:31:26;;;;;;;2.13;1.60;;;11.50;77.70;;;;;;5052132;28;20501;-74
2023/11/07 03:33:51;;;;;;;1.88;1.42;;;11.50;77.80;;;;;;5052115;28;20097;-76
2023/11/07 03:36:17;;;;;;;1.80;1.60;;;11.50;77.80;;;;;;5052698;28;20041;-75
2023/11/07 03:38:43;;;;;;;1.88;1.63;;;11.50;77.80;;;;;;5035991;28;20091;-76
2023/11/07 03:41:10;;;;;;;2.60;1.50;;;11.40;77.70;;;;;;5053382;28;20124;-74
2023/11/07 03:43:37;;;;;;;2.22;1.58;;;11.50;77.80;;;;;;5035442;28;20025;-75
2023/11/07 03:46:03;;;;;;;2.25;1.60;;;11.50;77.80;;;;;;5051959;28;20037;-76
2023/11/07 03:48:29;;;;;;;2.63;1.58;;;11.50;77.80;;;;;;5036254;28;20045;-74
2023/11/07 03:50:55;;;;;;;2.35;1.55;;;11.40;77.70;;;;;;5051768;28;20032;-74
2023/11/07 03:53:21;;;;;;;2.88;1.58;;;11.40;77.80;;;;;;5019175;28;20033;-75
2023/11/07 03:55:48;;;;;;;1.63;1.48;;;11.40;77.70;;;;;;5051816;28;20143;-75
2023/11/07 03:58:13;;;;;;;2.17;1.38;;;11.40;77.80;;;;;;5035310;28;20040;-75
2023/11/07 04:00:40;;;;;;;2.95;1.75;;;11.40;77.70;;;;;;5035442;28;20436;-75
2023/11/07 04:03:06;;;;;;;2.95;1.73;;;11.50;77.80;;;;;;5035463;28;20037;-74
2023/11/07 04:05:32;;;;;;;3.67;1.40;;;11.50;77.80;;;;;;5035119;28;20154;-74
2023/11/07 04:07:59;;;;;;;2.15;1.50;;;11.40;77.70;;;;;;5035036;28;20057;-75
2023/11/07 04:10:25;;;;;;;2.20;1.50;;;11.50;77.80;;;;;;5052685;28;20029;-75
2023/11/07 04:12:51;;;;;;;3.30;1.70;;;11.40;77.80;;;;;;5052685;28;20025;-75
2023/11/07 04:15:17;;;;;;;1.80;1.40;;;11.40;77.80;;;;;;5034958;28;20120;-75
2023/11/07 04:17:46;;;;;;;1.55;1.30;;;11.40;77.80;;;;;;5052587;28;20037;-76
2023/11/07 04:20:12;;;;;;;2.85;1.77;;;11.40;77.80;;;;;;5051955;28;20128;-77
2023/11/07 04:22:39;;;;;;;1.67;1.42;;;11.40;77.80;;;;;;5054444;28;20470;-75
2023/11/07 04:25:06;;;;;;;2.80;1.58;;;11.50;77.90;;;;;;5022753;28;20367;-75
2023/11/07 04:27:33;;;;;;;2.53;1.50;;;11.40;77.80;;;;;;5038678;28;20032;-75
2023/11/07 04:29:59;;;;;;;2.15;1.50;;;11.50;77.90;;;;;;5056029;28;20348;-75
2023/11/07 04:32:25;;;;;;;2.15;1.67;;;11.50;77.80;;;;;;5038941;28;20036;-74
2023/11/07 04:34:52;;;;;;;2.55;1.80;;;11.40;77.80;;;;;;5054979;28;20203;-74
2023/11/07 04:37:18;;;;;;;1.70;1.50;;;11.50;77.90;;;;;;5055228;28;20458;-74
2023/11/07 04:39:44;;;;;;;1.83;1.55;;;11.40;77.80;;;;;;5055044;28;20044;-75
2023/11/07 04:42:10;;;;;;;2.97;1.65;;;11.50;77.90;;;;;;5038723;28;20492;-74
2023/11/07 04:44:36;;;;;;;2.33;1.73;;;11.50;77.80;;;;;;5054873;28;20049;-74
2023/11/07 04:47:02;;;;;;;2.00;1.52;;;11.40;77.80;;;;;;5055771;28;20134;-75
2023/11/07 04:49:34;;;;;;;1.75;1.63;;;11.50;78.10;;;;;;5056957;28;20033;-76
2023/11/07 04:51:59;;;;;;;3.33;1.70;;;11.50;77.90;;;;;;5038303;28;20056;-76
2023/11/07 04:54:25;;;;;;;2.38;1.60;;;11.50;77.90;;;;;;5038058;28;20478;-75
2023/11/07 04:56:54;;;;;;;2.28;1.75;;;11.50;77.90;;;;;;5054550;28;20389;-75
2023/11/07 04:59:23;;;;;;;2.95;1.85;;;11.40;78.10;;;;;;5038765;28;20029;-77
2023/11/07 05:01:50;;;;;;;3.08;1.90;;;11.50;77.90;;;;;;5038147;28;20071;-76
2023/11/07 05:04:17;;;;;;;2.33;1.70;;;11.50;77.90;;;;;;5054986;28;20428;-75
2023/11/07 05:06:43;;;;;;;2.35;1.70;;;11.50;78.00;;;;;;5038032;28;20029;-75
2023/11/07 05:09:12;;;;;;;2.30;1.83;;;11.50;78.00;;;;;;5037749;28;20025;-75
2023/11/07 05:11:41;;;;;;;1.55;1.38;;;11.50;77.90;;;;;;5055664;28;20025;-75
2023/11/07 05:14:08;;;;;;;2.55;1.67;;;11.50;77.90;;;;;;5054595;28;20028;-75
2023/11/07 05:16:39;;;;;;;1.70;1.60;;;11.50;77.90;;;;;;5055327;28;20029;-75
2023/11/07 05:19:07;;;;;;;2.65;1.55;;;11.50;77.90;;;;;;5038722;28;20029;-75
2023/11/07 05:21:35;;;;;;;3.05;1.95;;;11.50;77.90;;;;;;5038349;28;20033;-75
2023/11/07 05:24:03;;;;;;;2.83;1.60;;;11.50;77.90;;;;;;5055281;28;20033;-75
2023/11/07 05:26:29;;;;;;;2.28;1.83;;;11.50;77.90;;;;;;5055180;28;20086;-74
2023/11/07 05:28:55;;;;;;;3.20;1.73;;;11.50;78.00;;;;;;5037657;28;20032;-75
2023/11/07 05:31:21;;;;;;;2.78;1.70;;;11.50;77.90;;;;;;5054041;28;20033;-75
2023/11/07 05:33:47;;;;;;;2.60;1.67;;;11.50;78.00;;;;;;5053042;28;20029;-75
2023/11/07 05:36:15;;;;;;;3.15;2.10;;;11.50;78.00;;;;;;5053804;28;20079;-74
2023/11/07 05:38:45;;;;;;;2.25;1.67;;;11.50;78.00;;;;;;5021583;28;20027;-75
2023/11/07 05:41:11;;;;;;;2.28;1.60;;;11.50;78.00;;;;;;5021091;28;20397;-75
2023/11/07 05:43:39;;;;;;;4.25;1.95;;;11.50;77.90;;;;;;5054681;28;20112;-75
2023/11/07 05:46:05;;;;;;;3.38;2.00;;;11.50;78.00;;;;;;5054992;28;20527;-75
2023/11/07 05:48:31;;;;;;;2.00;1.80;;;11.50;78.00;;;;;;5055117;28;20025;-76
2023/11/07 05:50:58;;;;;;;2.97;1.98;;;11.50;78.00;;;;;;5055313;28;20053;-75
2023/11/07 05:53:24;;;;;;;2.53;1.80;;;11.50;78.00;;;;;;5055045;28;20029;-76
2023/11/07 05:55:50;;;;;;;2.65;1.90;;;11.50;78.00;;;;;;5053411;28;20438;-76
2023/11/07 05:58:16;;;;;;;2.80;1.88;;;11.50;78.00;;;;;;5036946;28;20067;-78
2023/11/07 06:00:43;;;;;;;2.10;1.85;;;11.50;78.00;;;;;;5037203;28;20124;-74
2023/11/07 06:03:08;;;;;;;2.85;1.98;;;11.50;78.00;;;;;;5054221;28;20104;-76
2023/11/07 06:05:34;;;;;;;2.78;1.88;;;11.50;78.00;;;;;;5020479;28;20488;-75
2023/11/07 06:08:00;;;;;;;2.58;2.15;;;11.50;78.00;;;;;;5037233;28;20044;-75
2023/11/07 06:10:26;;;;;;;2.95;2.10;;;11.50;78.00;;;;;;5053094;28;20025;-73
2023/11/07 06:12:52;;;;;;;3.00;1.85;;;11.50;78.00;;;;;;5053086;28;20037;-77
2023/11/07 06:15:19;;;;;;;2.97;1.80;;;11.50;78.00;;;;;;5053023;28;20041;-73
2023/11/07 06:17:46;;;;;;;3.33;1.88;;;11.50;78.00;;;;;;5037137;28;20063;-76
2023/11/07 06:20:16;;;;;;;3.75;2.50;;;11.50;78.00;;;;;;5037821;28;20037;-77
2023/11/07 06:22:42;;;;;;;2.38;1.98;;;11.50;78.00;;;;;;5038057;28;20059;-76
2023/11/07 06:25:09;;;;;;;2.22;1.90;;;11.50;78.00;;;;;;5036430;28;20466;-76
2023/11/07 06:27:35;;;;;;;3.47;2.30;;;11.50;78.00;;;;;;5036683;28;20037;-78
2023/11/07 06:30:03;;;;;;;3.13;2.10;;;11.60;78.00;;;;;;5053788;28;20052;-77
2023/11/07 06:32:29;;;;;;;2.03;1.83;;;11.60;78.00;;;;;;5052675;28;20025;-78
2023/11/07 06:34:55;;;;;;;3.80;2.63;;;11.50;78.00;;;;;;5053024;28;20037;-78
2023/11/07 06:37:21;;;;;;;2.58;1.88;;;11.50;78.00;;;;;;5052797;28;20477;-75
2023/11/07 06:39:46;;;;;;;3.03;2.33;;;11.50;78.00;;;;;;5036265;28;20041;-76
2023/11/07 06:42:12;;;;;;;3.45;2.10;;;11.50;78.00;;;;;;5053497;28;20041;-76
2023/11/07 06:44:38;;;;;;;2.90;2.30;;;11.50;78.00;;;;;;5019633;28;20417;-76
2023/11/07 06:47:05;;;;;;;3.33;2.13;;;11.50;78.00;;;;;;5054398;28;20040;-77
2023/11/07 06:49:31;;;;;;;3.13;1.92;;;11.50;78.00;;;;;;5036286;28;20029;-76
2023/11/07 06:51:57;;;;;;;2.88;2.10;;;11.50;78.00;;;;;;5052605;28;20462;-77
2023/11/07 06:54:23;;;;;;;3.10;2.25;;;11.50;78.00;;;;;;5051986;28;20106;-78
2023/11/07 06:56:49;;;;;;;4.30;2.30;;;11.60;78.00;;;;;;5052648;28;20037;-76
2023/11/07 06:59:16;;;;;;;3.55;2.13;;;11.60;78.00;;;;;;5036327;28;20060;-76
2023/11/07 07:01:44;;;;;;;4.05;2.42;;;11.60;78.00;;;;;;5036592;28;20037;-76
2023/11/07 07:04:11;;;;;;;3.25;2.03;;;11.60;78.10;;;;;;5052695;28;20032;-77
2023/11/07 07:06:37;;;;;;;2.72;2.30;;;11.60;78.10;;;;;;5052039;28;20037;-76
2023/11/07 07:09:06;;;;;;;4.32;2.67;;;11.60;78.00;;;;;;5019903;28;20029;-76
2023/11/07 07:11:32;;;;;;;2.88;2.20;;;11.60;78.10;;;;;;5052731;28;20055;-76
2023/11/07 07:13:58;;;;;;;3.58;2.38;;;11.60;78.00;;;;;;5035644;28;20044;-77
2023/11/07 07:16:28;;;;;;;2.83;2.33;;;11.60;78.10;;;;;;5053717;28;20110;-76
2023/11/07 07:18:53;;;;;;;2.30;2.10;;;11.60;78.00;;;;;;5051953;28;20035;-76
2023/11/07 07:21:21;;;;;;;3.33;2.20;;;11.50;78.00;;;;;;5054250;28;20112;-76
2023/11/07 07:23:47;;;;;;;2.60;2.17;;;11.60;78.10;;;;;;5052798;28;20129;-73
2023/11/07 07:26:14;;;;;;;3.08;2.50;;;11.60;78.10;;;;;;5052494;28;20044;-74
2023/11/07 07:28:40;;;;;;;3.55;2.45;;;11.60;78.10;;;;;;5051900;28;20032;-76
2023/11/07 07:31:06;;;;;;;3.22;2.17;;;11.60;78.10;;;;;;5052827;28;20423;-75
2023/11/07 07:33:36;;;;;;;2.55;2.03;;;11.60;78.10;;;;;;5051962;28;20059;-74
2023/11/07 07:36:04;;;;;;;3.28;2.45;;;11.60;78.10;;;;;;5053286;28;20029;-76
2023/11/07 07:38:35;;;;;;;3.67;2.65;;;11.60;78.00;;;;;;5053103;28;20124;-75
2023/11/07 07:41:01;;;;;;;2.78;2.10;;;11.60;78.10;;;;;;5051554;28;20033;-76
2023/11/07 07:43:27;;;;;;;4.00;2.22;;;11.60;78.00;;;;;;5051760;28;20462;-75
2023/11/07 07:45:55;;;;;;;2.83;2.20;;;11.70;78.10;;;;;;5052575;28;20033;-75
2023/11/07 07:48:22;;;;;;;2.58;2.05;;;11.70;78.10;;;;;;5034837;28;20078;-75
2023/11/07 07:50:48;;;;;;;3.83;2.50;;;11.70;78.10;;;;;;5052713;28;20538;-74
2023/11/07 07:53:20;;;;;;;3.67;2.67;;;11.70;78.10;;;;;;5052325;28;20112;-74
2023/11/07 07:55:50;;;;;;;2.58;2.05;;;11.70;78.10;;;;;;5053242;28;20049;-75
2023/11/07 07:58:19;;;;;;;3.05;2.05;;;11.60;78.00;;;;;;5055904;28;20064;-75
2023/11/07 08:00:49;;;;;;;3.17;2.25;;;11.70;78.00;;;;;;5040110;28;20033;-74
2023/11/07 08:03:16;;;;;;;3.75;2.40;;;11.60;78.00;;;;;;5055689;28;20113;-75
2023/11/07 08:05:44;;;;;;;4.40;2.40;;;11.70;78.00;;;;;;5056889;28;20159;-74
2023/11/07 08:08:10;;;;;;;2.80;2.40;;;11.70;78.00;;;;;;5055932;28;20025;-75
2023/11/07 08:10:37;;;;;;;2.50;2.00;;;11.70;78.10;;;;;;5056235;28;20036;-74
2023/11/07 08:13:06;;;;;;;3.60;2.45;;;11.70;78.00;;;;;;5039061;28;20440;-77
2023/11/07 08:15:35;;;;;;;4.80;2.40;;;11.70;78.00;;;;;;5039830;28;20044;-75
2023/11/07 08:18:05;;;;;;;2.95;2.35;;;11.70;78.10;;;;;;5056857;28;20033;-75
2023/11/07 08:20:33;;;;;;;4.60;2.40;;;11.70;78.10;;;;;;5039799;28;20389;-75
2023/11/07 08:22:59;;;;;;;3.75;2.63;;;11.70;78.10;;;;;;5055539;28;20492;-75
2023/11/07 08:25:27;;;;;;;2.92;2.30;;;11.70;78.10;;;;;;5056265;28;20124;-74
2023/11/07 08:27:54;;;;;;;3.03;2.30;;;11.70;78.00;;;;;;5055508;28;20355;-74
2023/11/07 08:30:23;;;;;;;2.75;2.20;;;11.80;78.10;;;;;;5056434;28;20175;-75
2023/11/07 08:32:49;;;;;;;2.97;2.35;;;11.70;78.10;;;;;;5022287;28;20033;-75
2023/11/07 08:35:16;;;;;;;2.95;2.20;;;11.70;78.70;;;;;;5056293;28;20508;-75
2023/11/07 08:37:46;;;;;;;3.65;2.40;;;11.80;78.10;;;;;;5022163;28;20037;-76
2023/11/07 08:40:12;;;;;;;3.53;2.85;;;11.70;78.10;;;;;;5056886;28;20040;-75
2023/11/07 08:42:44;;;;;;;2.92;2.20;;;11.80;78.10;;;;;;5054978;28;20509;-75
2023/11/07 08:45:18;;;;;;;3.10;2.35;;;11.80;78.10;;;;;;5023942;28;20037;-77
2023/11/07 08:47:56;;;;;;;2.60;2.20;;;11.80;78.10;;;;;;5055015;28;20539;-75
2023/11/07 08:50:23;;;;;;;2.97;2.20;;;11.80;78.10;;;;;;5056361;28;20037;-75
2023/11/07 08:52:52;;;;;;;3.95;2.42;;;11.80;78.00;;;;;;5055600;28;20033;-75
2023/11/07 08:55:19;;;;;;;3.35;2.42;;;11.80;78.00;;;;;;5054642;28;20049;-75
2023/11/07 08:57:49;;;;;;;3.03;2.28;;;11.80;78.00;;;;;;5054686;28;20465;-75
2023/11/07 09:00:27;;;;;;;2.47;2.03;;;11.90;78.10;;;;;;5055144;28;20033;-75
2023/11/07 09:02:53;;;;;;;2.97;2.10;;;11.90;78.10;;;;;;5054771;28;20037;-75
2023/11/07 09:05:20;;;;;;;4.57;2.38;;;11.80;78.00;;;;;;5054520;28;20032;-75
2023/11/07 09:07:46;;;;;;;3.50;2.47;;;11.80;78.00;;;;;;5037831;28;20033;-75
2023/11/07 09:10:12;;;;;;;3.90;2.45;;;11.90;78.10;;;;;;5054769;28;20039;-76
2023/11/07 09:12:42;;;;;;;2.90;2.35;;;11.90;78.10;;;;;;5055922;28;20021;-76
2023/11/07 09:15:10;;;;;;;2.85;2.30;;;11.90;78.10;;;;;;5055844;28;20033;-76
2023/11/07 09:17:41;;;;;;;4.25;2.58;;;11.90;78.10;;;;;;5054307;28;20115;-75
2023/11/07 09:20:13;;;;;;;3.17;2.20;;;11.90;78.10;;;;;;5055144;28;20041;-74
2023/11/07 09:22:41;;;;;;;3.15;2.20;;;12.00;78.10;;;;;;5054815;28;20029;-75
2023/11/07 09:25:08;;;;;;;2.80;2.08;;;12.00;78.10;;;;;;5038257;28;20434;-74
2023/11/07 09:27:36;;;;;;;3.17;2.45;;;12.00;78.00;;;;;;5054100;28;20039;-75
2023/11/07 09:30:09;;;;;;;2.78;2.30;;;12.00;78.00;;;;;;5054302;28;20389;-74
2023/11/07 09:32:35;;;;;;;2.45;2.10;;;12.00;78.00;;;;;;5055041;28;20033;-75
2023/11/07 09:35:03;;;;;;;2.20;2.00;;;12.00;78.00;;;;;;5037562;28;20044;-75
2023/11/07 09:37:29;;;;;;;3.47;2.10;;;12.00;78.00;;;;;;5037641;28;20040;-75
2023/11/07 09:39:55;;;;;;;2.78;2.10;;;12.10;78.00;;;;;;5037344;28;20041;-75
2023/11/07 09:42:21;;;;;;;2.85;2.10;;;12.10;78.10;;;;;;5054383;28;20033;-75
2023/11/07 09:44:50;;;;;;;3.35;2.17;;;12.10;78.00;;;;;;5020946;28;20077;-75
2023/11/07 09:47:16;;;;;;;3.42;2.20;;;12.10;78.00;;;;;;5055701;28;20037;-75
2023/11/07 09:49:42;;;;;;;3.47;2.17;;;12.10;78.00;;;;;;5021166;28;20035;-75
2023/11/07 09:52:08;;;;;;;2.75;1.92;;;12.10;78.00;;;;;;5053788;28;20028;-75
2023/11/07 09:54:36;;;;;;;3.22;2.30;;;12.20;78.00;;;;;;5053865;28;20131;-75
2023/11/07 09:57:06;;;;;;;3.05;2.17;;;12.20;78.00;;;;;;5037124;28;20172;-75
2023/11/07 09:59:36;;;;;;;2.72;2.13;;;12.20;78.00;;;;;;5055061;28;20037;-75
2023/11/07 10:02:07;;;;;;;2.53;1.95;;;12.20;78.00;;;;;;5054708;28;20094;-75
2023/11/07 10:04:35;;;;;;;2.65;1.90;;;12.20;78.00;;;;;;5053993;28;20069;-75
2023/11/07 10:07:02;;;;;;;2.83;2.00;;;12.20;78.00;;;;;;5053628;28;20082;-75
2023/11/07 10:09:29;;;;;;;4.45;2.08;;;12.20;77.90;;;;;;5053395;28;20033;-75
2023/11/07 10:11:56;;;;;;;2.80;2.00;;;12.30;78.00;;;;;;5053894;28;20051;-75
2023/11/07 10:14:23;;;;;;;3.58;2.20;;;12.30;78.00;;;;;;5054952;28;20032;-74
2023/11/07 10:16:58;;;;;;;2.03;1.83;;;12.30;78.00;;;;;;5036823;28;20381;-76
2023/11/07 10:19:25;;;;;;;3.08;2.45;;;12.30;78.00;;;;;;5052795;28;20033;-75
2023/11/07 10:21:52;;;;;;;2.05;1.83;;;12.30;78.00;;;;;;5053140;28;20028;-75
2023/11/07 10:24:18;;;;;;;2.65;2.20;;;12.30;77.90;;;;;;5036486;28;20032;-75
2023/11/07 10:27:00;;;;;;;2.42;1.90;;;12.30;77.90;;;;;;5020270;28;20040;-75
2023/11/07 10:29:27;;;;;;;2.50;2.03;;;12.40;78.00;;;;;;5053955;28;20037;-75
2023/11/07 10:32:00;;;;;;;2.78;2.10;;;12.40;77.90;;;;;;5053999;28;20133;-75
2023/11/07 10:34:26;;;;;;;3.13;2.00;;;12.40;78.00;;;;;;5052996;28;20025;-75
2023/11/07 10:36:52;;;;;;;2.85;2.13;;;12.40;77.90;;;;;;5053200;28;20048;-75
2023/11/07 10:39:21;;;;;;;3.63;2.05;;;12.40;77.90;;;;;;5036429;28;20037;-75
2023/11/07 10:41:50;;;;;;;2.00;1.80;;;12.40;77.80;;;;;;5052797;28;20040;-74
2023/11/07 10:44:24;;;;;;;2.67;1.80;;;12.50;77.90;;;;;;5052887;28;20033;-75
2023/11/07 10:46:53;;;;;;;3.25;2.08;;;12.50;77.90;;;;;;5053177;28;20029;-74
2023/11/07 10:49:20;;;;;;;3.08;1.88;;;12.50;77.90;;;;;;5053816;28;20068;-75
2023/11/07 10:51:47;;;;;;;2.30;1.70;;;12.50;77.80;;;;;;5052835;28;20059;-74
2023/11/07 10:54:13;;;;;;;2.08;1.80;;;12.50;77.80;;;;;;5035986;28;20082;-75
2023/11/07 10:56:44;;;;;;;3.10;2.00;;;12.60;77.80;;;;;;5052479;28;20064;-75
2023/11/07 10:59:16;;;;;;;2.05;1.75;;;12.60;77.80;;;;;;5053106;28;20083;-75
2023/11/07 11:01:46;;;;;;;2.40;1.80;;;12.60;77.80;;;;;;5036900;28;20029;-75
2023/11/07 11:04:13;;;;;;;2.90;1.70;;;12.60;77.80;;;;;;5036352;28;20194;-76
2023/11/07 11:06:48;;;;;;;2.65;1.90;;;12.60;77.80;;;;;;5036037;28;20067;-76
2023/11/07 11:09:17;;;;;;;2.72;1.90;;;12.70;77.90;;;;;;5053557;28;20032;-76
2023/11/07 11:11:46;;;;;;;2.08;1.80;;;12.70;77.80;;;;;;5053301;28;20021;-76
2023/11/07 11:14:12;;;;;;;2.22;1.75;;;12.70;77.80;;;;;;5052807;28;20041;-76
2023/11/07 11:16:40;;;;;;;2.38;1.80;;;12.70;77.80;;;;;;5036603;28;20044;-75
2023/11/07 11:19:39;;;;;;;1.88;1.60;;;12.70;77.80;;;;;;5052557;28;20029;-75
2023/11/07 11:22:25;;;;;;;3.10;1.98;;;12.70;77.80;;;;;;5053951;28;20476;-75
2023/11/07 11:25:17;;;;;;;1.75;1.58;;;12.70;77.80;;;;;;5053175;28;20465;-77
2023/11/07 11:27:51;;;;;;;1.80;1.42;;;12.80;77.80;;;;;;5052186;28;20071;-75
2023/11/07 11:30:17;;;;;;;2.08;1.75;;;12.80;77.70;;;;;;5052652;28;20029;-75
2023/11/07 11:32:44;;;;;;;2.13;1.80;;;12.80;77.70;;;;;;5036033;28;20472;-75
2023/11/07 11:35:19;;;;;;;2.20;1.67;;;12.80;77.60;;;;;;5053187;28;20033;-75
2023/11/07 11:38:09;;;;;;;;;;;12.90;77.70;;;;;;5036054;28;20037;-75
2023/11/07 11:40:54;;;;;;;1.83;1.40;;;12.90;77.50;;;;;;5035411;28;19912;-75
2023/11/07 11:43:21;;;;;;;1.73;1.63;;;12.90;77.50;;;;;;5052422;28;20106;-75
2023/11/07 11:45:50;;;;;;;1.70;1.60;;;12.90;77.40;;;;;;5035506;28;20032;-75
2023/11/07 11:48:18;;;;;;;2.78;1.70;;;13.00;77.50;;;;;;5052403;28;20033;-75
2023/11/07 11:50:46;;;;;;;1.85;1.60;;;13.00;77.50;;;;;;5052192;28;20082;-75
2023/11/07 11:53:34;;;;;;;1.60;1.50;;;13.00;77.50;;;;;;5053299;28;20104;-76
2023/11/07 11:55:59;;;;;;;2.40;1.60;;;13.00;77.50;;;;;;5052885;28;20083;-75
2023/11/07 11:58:31;;;;;;;2.20;1.73;;;13.10;77.30;;;;;;5035354;28;20039;-75
2023/11/07 12:01:01;;;;;;;2.70;1.70;;;13.10;77.30;;;;;;5052696;28;20044;-75
2023/11/07 12:03:45;;;;;;;1.90;1.52;;;13.20;77.30;;;;;;5035744;28;20079;-75
2023/11/07 12:06:11;;;;;;;1.85;1.50;;;13.20;77.20;;;;;;5035610;28;20025;-75
2023/11/07 12:08:39;;;;;;;1.75;1.50;;;13.30;77.10;;;;;;5035326;28;20029;-75
2023/11/07 12:11:06;;;;;;;2.08;1.60;;;13.30;77.10;;;;;;5035307;28;20029;-74
2023/11/07 12:13:32;;;;;;;1.73;1.50;;;13.30;77.00;;;;;;5053150;28;20037;-74
2023/11/07 12:16:13;;;;;;;1.77;1.50;;;13.40;77.00;;;;;;5051605;28;20040;-74
2023/11/07 12:18:41;;;;;;;1.50;1.38;;;13.40;77.00;;;;;;5053256;28;20079;-74
2023/11/07 12:21:07;;;;;;;1.48;1.38;;;13.40;76.90;;;;;;5035467;28;20055;-74
2023/11/07 12:23:32;;;;;;;2.05;1.30;;;13.50;76.80;;;;;;5051637;28;20041;-75
2023/11/07 12:25:58;;;;;;;1.83;1.40;;;13.50;76.80;;;;;;5051814;28;20029;-75
2023/11/07 12:28:24;;;;;;;2.15;1.42;;;13.60;76.70;;;;;;5052939;28;20033;-75
2023/11/07 12:30:56;;;;;;;3.10;1.77;;;13.60;76.70;;;;;;5052624;28;20060;-75
2023/11/07 12:33:22;;;;;;;2.10;1.55;;;13.70;76.70;;;;;;5052596;28;20123;-75
2023/11/07 12:35:56;;;;;;;2.00;1.55;;;13.70;76.70;;;;;;5035834;28;20120;-75
2023/11/07 12:38:24;;;;;;;1.58;1.40;;;13.70;76.70;;;;;;5051903;28;20135;-75
2023/11/07 12:40:50;;;;;;;2.63;1.80;;;13.70;76.60;;;;;;5051647;28;20021;-75
2023/11/07 12:43:16;;;;;;;1.70;1.60;;;13.80;76.60;;;;;;5037089;28;20389;-76
2023/11/07 12:45:46;;;;;;;1.52;1.42;;;13.80;76.50;;;;;;5056660;28;20028;-78
2023/11/07 12:48:15;;;;;;;1.48;1.38;;;13.90;76.60;;;;;;5022915;28;20493;-75
2023/11/07 12:50:46;;;;;;;2.47;1.70;;;13.90;76.50;;;;;;5056660;28;20033;-75